sensor_id;sensor_type;location;lat;lon;timestamp;temperature;humidity
31661;DHT22;18267;52.234;7.444;2023-04-15T00:00:15;9.40;99.90
31661;DHT22;18267;52.234;7.444;2023-04-15T00:02:41;9.50;99.90
31661;DHT22;18267;52.234;7.444;2023-04-15T00:05:07;9.30;99.90
31661;DHT22;18267;52.234;7.444;2023-04-15T00:07:32;9.20;99.90
31661;DHT22;18267;52.234;7.444;2023-04-15T00:09:58;9.00;99.90
31661;DHT22;18267;52.234;7.444;2023-04-15T00:12:24;8.80;99.90
31661;DHT22;18267;52.234;7.444;2023-04-15T00:14:50;8.70;99.90
31661;DHT22;18267;52.234;7.444;2023-04-15T00:17:16;8.90;99.90
31661;DHT22;18267;52.234;7.444;2023-04-15T00:19:42;9.00;99.90
31661;DHT22;18267;52.234;7.444;2023-04-15T00:22:09;9.00;99.90
31661;DHT22;18267;52.234;7.444;2023-04-15T00:24:34;9.00;99.90
31661;DHT22;18267;52.234;7.444;2023-04-15T00:27:00;9.00;99.90
31661;DHT22;18267;52.234;7.444;2023-04-15T00:29:25;9.00;99.90
31661;DHT22;18267;52.234;7.444;2023-04-15T00:31:51;8.90;99.90
31661;DHT22;18267;52.234;7.444;2023-04-15T00:34:17;9.00;99.90
31661;DHT22;18267;52.234;7.444;2023-04-15T00:36:43;9.10;99.90
31661;DHT22;18267;52.234;7.444;2023-04-15T00:39:08;9.00;99.90
31661;DHT22;18267;52.234;7.444;2023-04-15T00:41:34;9.00;99.90
31661;DHT22;18267;52.234;7.444;2023-04-15T00:44:04;9.00;99.90
31661;DHT22;18267;52.234;7.444;2023-04-15T00:46:30;9.00;99.90
31661;DHT22;18267;52.234;7.444;2023-04-15T00:48:56;8.80;99.90
31661;DHT22;18267;52.234;7.444;2023-04-15T00:51:22;8.90;99.90
31661;DHT22;18267;52.234;7.444;2023-04-15T00:53:47;8.90;99.90
31661;DHT22;18267;52.234;7.444;2023-04-15T00:56:13;8.90;99.90
31661;DHT22;18267;52.234;7.444;2023-04-15T00:58:39;8.80;99.90
31661;DHT22;18267;52.234;7.444;2023-04-15T01:01:05;8.70;99.90
31661;DHT22;18267;52.234;7.444;2023-04-15T01:03:31;8.80;99.90
31661;DHT22;18267;52.234;7.444;2023-04-15T01:05:56;8.90;99.90
31661;DHT22;18267;52.234;7.444;2023-04-15T01:08:27;8.90;99.90
31661;DHT22;18267;52.234;7.444;2023-04-15T01:10:56;8.90;99.90
31661;DHT22;18267;52.234;7.444;2023-04-15T01:13:23;8.90;99.90
31661;DHT22;18267;52.234;7.444;2023-04-15T01:15:50;8.80;99.90
31661;DHT22;18267;52.234;7.444;2023-04-15T01:18:18;8.70;99.90
31661;DHT22;18267;52.234;7.444;2023-04-15T01:20:45;8.70;99.90
31661;DHT22;18267;52.234;7.444;2023-04-15T01:23:11;8.80;99.90
31661;DHT22;18267;52.234;7.444;2023-04-15T01:25:37;8.90;99.90
31661;DHT22;18267;52.234;7.444;2023-04-15T01:28:04;8.80;99.90
31661;DHT22;18267;52.234;7.444;2023-04-15T01:30:33;8.70;99.90
31661;DHT22;18267;52.234;7.444;2023-04-15T01:32:59;8.60;99.90
31661;DHT22;18267;52.234;7.444;2023-04-15T01:35:24;8.60;99.90
31661;DHT22;18267;52.234;7.444;2023-04-15T01:37:51;8.70;99.90
31661;DHT22;18267;52.234;7.444;2023-04-15T01:40:18;8.60;99.90
31661;DHT22;18267;52.234;7.444;2023-04-15T01:42:45;8.60;99.90
31661;DHT22;18267;52.234;7.444;2023-04-15T01:45:11;8.50;99.90
31661;DHT22;18267;52.234;7.444;2023-04-15T01:47:40;8.40;99.90
31661;DHT22;18267;52.234;7.444;2023-04-15T01:50:06;8.50;99.90
31661;DHT22;18267;52.234;7.444;2023-04-15T01:52:32;8.30;99.90
31661;DHT22;18267;52.234;7.444;2023-04-15T01:54:58;8.30;99.90
31661;DHT22;18267;52.234;7.444;2023-04-15T01:57:23;8.20;99.90
31661;DHT22;18267;52.234;7.444;2023-04-15T01:59:49;8.10;99.90
31661;DHT22;18267;52.234;7.444;2023-04-15T02:02:15;8.20;99.90
31661;DHT22;18267;52.234;7.444;2023-04-15T02:04:41;8.20;99.90
31661;DHT22;18267;52.234;7.444;2023-04-15T02:07:07;8.20;99.90
31661;DHT22;18267;52.234;7.444;2023-04-15T02:09:32;8.10;99.90
31661;DHT22;18267;52.234;7.444;2023-04-15T02:11:58;8.10;99.90
31661;DHT22;18267;52.234;7.444;2023-04-15T02:14:25;7.90;99.90
31661;DHT22;18267;52.234;7.444;2023-04-15T02:16:50;8.00;99.90
31661;DHT22;18267;52.234;7.444;2023-04-15T02:19:16;8.00;99.90
31661;DHT22;18267;52.234;7.444;2023-04-15T02:21:42;8.00;99.90
31661;DHT22;18267;52.234;7.444;2023-04-15T02:24:08;8.00;99.90
31661;DHT22;18267;52.234;7.444;2023-04-15T02:26:34;7.80;99.90
31661;DHT22;18267;52.234;7.444;2023-04-15T02:28:59;7.80;99.90
31661;DHT22;18267;52.234;7.444;2023-04-15T02:31:25;7.80;99.90
31661;DHT22;18267;52.234;7.444;2023-04-15T02:33:51;7.90;99.90
31661;DHT22;18267;52.234;7.444;2023-04-15T02:36:16;8.00;99.90
31661;DHT22;18267;52.234;7.444;2023-04-15T02:38:42;7.90;99.90
31661;DHT22;18267;52.234;7.444;2023-04-15T02:41:11;7.80;99.90
31661;DHT22;18267;52.234;7.444;2023-04-15T02:43:36;7.60;99.90
31661;DHT22;18267;52.234;7.444;2023-04-15T02:46:04;7.70;99.90
31661;DHT22;18267;52.234;7.444;2023-04-15T02:48:31;7.60;99.90
31661;DHT22;18267;52.234;7.444;2023-04-15T02:51:15;7.60;99.90
31661;DHT22;18267;52.234;7.444;2023-04-15T02:53:43;7.70;99.90
31661;DHT22;18267;52.234;7.444;2023-04-15T02:56:08;7.60;99.90
31661;DHT22;18267;52.234;7.444;2023-04-15T02:58:34;7.70;99.90
31661;DHT22;18267;52.234;7.444;2023-04-15T03:01:00;7.70;99.90
31661;DHT22;18267;52.234;7.444;2023-04-15T03:03:26;7.70;99.90
31661;DHT22;18267;52.234;7.444;2023-04-15T03:05:55;7.70;99.90
31661;DHT22;18267;52.234;7.444;2023-04-15T03:08:20;7.70;99.90
31661;DHT22;18267;52.234;7.444;2023-04-15T03:10:46;7.70;99.90
31661;DHT22;18267;52.234;7.444;2023-04-15T03:13:12;7.80;99.90
31661;DHT22;18267;52.234;7.444;2023-04-15T03:15:38;7.80;99.90
31661;DHT22;18267;52.234;7.444;2023-04-15T03:18:03;7.80;99.90
31661;DHT22;18267;52.234;7.444;2023-04-15T03:20:29;7.80;99.90
31661;DHT22;18267;52.234;7.444;2023-04-15T03:22:55;7.90;99.90
31661;DHT22;18267;52.234;7.444;2023-04-15T03:25:21;7.90;99.90
31661;DHT22;18267;52.234;7.444;2023-04-15T03:27:47;7.70;99.90
31661;DHT22;18267;52.234;7.444;2023-04-15T03:30:12;7.60;99.90
31661;DHT22;18267;52.234;7.444;2023-04-15T03:32:39;7.60;99.90
31661;DHT22;18267;52.234;7.444;2023-04-15T03:35:04;7.50;99.90
31661;DHT22;18267;52.234;7.444;2023-04-15T03:37:30;7.50;99.90
31661;DHT22;18267;52.234;7.444;2023-04-15T03:39:56;7.40;99.90
31661;DHT22;18267;52.234;7.444;2023-04-15T03:42:22;7.40;99.90
31661;DHT22;18267;52.234;7.444;2023-04-15T03:44:47;7.40;99.90
31661;DHT22;18267;52.234;7.444;2023-04-15T03:47:13;7.40;99.90
31661;DHT22;18267;52.234;7.444;2023-04-15T03:49:38;7.40;99.90
31661;DHT22;18267;52.234;7.444;2023-04-15T03:52:04;7.40;99.90
31661;DHT22;18267;52.234;7.444;2023-04-15T03:54:30;7.30;99.90
31661;DHT22;18267;52.234;7.444;2023-04-15T03:56:56;7.20;99.90
31661;DHT22;18267;52.234;7.444;2023-04-15T03:59:22;7.20;99.90
31661;DHT22;18267;52.234;7.444;2023-04-15T04:01:48;7.20;99.90
31661;DHT22;18267;52.234;7.444;2023-04-15T04:04:13;7.20;99.90
31661;DHT22;18267;52.234;7.444;2023-04-15T04:06:39;7.20;99.90
31661;DHT22;18267;52.234;7.444;2023-04-15T04:09:04;7.30;99.90
31661;DHT22;18267;52.234;7.444;2023-04-15T04:11:30;7.10;99.90
31661;DHT22;18267;52.234;7.444;2023-04-15T04:13:56;7.00;99.90
31661;DHT22;18267;52.234;7.444;2023-04-15T04:16:21;6.80;99.90
31661;DHT22;18267;52.234;7.444;2023-04-15T04:18:47;6.80;99.90
31661;DHT22;18267;52.234;7.444;2023-04-15T04:21:12;6.80;99.90
31661;DHT22;18267;52.234;7.444;2023-04-15T04:23:38;6.80;99.90
31661;DHT22;18267;52.234;7.444;2023-04-15T04:26:04;6.90;99.90
31661;DHT22;18267;52.234;7.444;2023-04-15T04:28:29;7.00;99.90
31661;DHT22;18267;52.234;7.444;2023-04-15T04:30:55;7.00;99.90
31661;DHT22;18267;52.234;7.444;2023-04-15T04:33:20;7.10;99.90
31661;DHT22;18267;52.234;7.444;2023-04-15T04:35:47;7.30;99.90
31661;DHT22;18267;52.234;7.444;2023-04-15T04:38:13;7.40;99.90
31661;DHT22;18267;52.234;7.444;2023-04-15T04:40:38;7.40;99.90
31661;DHT22;18267;52.234;7.444;2023-04-15T04:43:04;7.40;99.90
31661;DHT22;18267;52.234;7.444;2023-04-15T04:45:30;7.30;99.90
31661;DHT22;18267;52.234;7.444;2023-04-15T04:47:55;7.40;99.90
31661;DHT22;18267;52.234;7.444;2023-04-15T04:50:21;7.50;99.90
31661;DHT22;18267;52.234;7.444;2023-04-15T04:52:46;7.50;99.90
31661;DHT22;18267;52.234;7.444;2023-04-15T04:55:12;7.60;99.90
31661;DHT22;18267;52.234;7.444;2023-04-15T04:57:37;7.70;99.90
31661;DHT22;18267;52.234;7.444;2023-04-15T05:00:07;7.70;99.90
31661;DHT22;18267;52.234;7.444;2023-04-15T05:02:33;7.60;99.90
31661;DHT22;18267;52.234;7.444;2023-04-15T05:04:59;7.50;99.90
31661;DHT22;18267;52.234;7.444;2023-04-15T05:07:26;7.50;99.90
31661;DHT22;18267;52.234;7.444;2023-04-15T05:09:52;7.50;99.90
31661;DHT22;18267;52.234;7.444;2023-04-15T05:12:17;7.20;99.90
31661;DHT22;18267;52.234;7.444;2023-04-15T05:14:43;7.30;99.90
31661;DHT22;18267;52.234;7.444;2023-04-15T05:17:08;7.30;99.90
31661;DHT22;18267;52.234;7.444;2023-04-15T05:19:35;7.40;99.90
31661;DHT22;18267;52.234;7.444;2023-04-15T05:22:02;7.60;99.90
31661;DHT22;18267;52.234;7.444;2023-04-15T05:24:27;7.60;99.90
31661;DHT22;18267;52.234;7.444;2023-04-15T05:26:53;7.50;99.90
31661;DHT22;18267;52.234;7.444;2023-04-15T05:29:19;7.30;99.90
31661;DHT22;18267;52.234;7.444;2023-04-15T05:31:44;7.20;99.90
31661;DHT22;18267;52.234;7.444;2023-04-15T05:34:10;7.10;99.90
31661;DHT22;18267;52.234;7.444;2023-04-15T05:36:36;7.00;99.90
31661;DHT22;18267;52.234;7.444;2023-04-15T05:39:02;6.90;99.90
31661;DHT22;18267;52.234;7.444;2023-04-15T05:41:28;6.80;99.90
31661;DHT22;18267;52.234;7.444;2023-04-15T05:43:54;6.70;99.90
31661;DHT22;18267;52.234;7.444;2023-04-15T05:56:50;6.70;99.90
31661;DHT22;18267;52.234;7.444;2023-04-15T05:59:15;6.90;99.90
31661;DHT22;18267;52.234;7.444;2023-04-15T06:01:41;7.00;99.90
31661;DHT22;18267;52.234;7.444;2023-04-15T06:04:07;7.00;99.90
31661;DHT22;18267;52.234;7.444;2023-04-15T06:06:32;6.90;99.90
31661;DHT22;18267;52.234;7.444;2023-04-15T06:08:58;6.90;99.90
31661;DHT22;18267;52.234;7.444;2023-04-15T06:11:24;6.90;99.90
31661;DHT22;18267;52.234;7.444;2023-04-15T06:13:51;7.00;99.90
31661;DHT22;18267;52.234;7.444;2023-04-15T06:16:16;7.00;99.90
31661;DHT22;18267;52.234;7.444;2023-04-15T06:18:42;7.00;99.90
31661;DHT22;18267;52.234;7.444;2023-04-15T06:21:07;7.00;99.90
31661;DHT22;18267;52.234;7.444;2023-04-15T06:23:34;7.10;99.90
31661;DHT22;18267;52.234;7.444;2023-04-15T06:26:01;7.20;99.90
31661;DHT22;18267;52.234;7.444;2023-04-15T06:28:26;7.30;99.90
31661;DHT22;18267;52.234;7.444;2023-04-15T06:30:52;7.20;99.90
31661;DHT22;18267;52.234;7.444;2023-04-15T06:33:18;7.30;99.90
31661;DHT22;18267;52.234;7.444;2023-04-15T06:35:43;7.30;99.90
31661;DHT22;18267;52.234;7.444;2023-04-15T06:38:09;7.30;99.90
31661;DHT22;18267;52.234;7.444;2023-04-15T06:40:34;7.30;99.90
31661;DHT22;18267;52.234;7.444;2023-04-15T06:43:00;7.30;99.90
31661;DHT22;18267;52.234;7.444;2023-04-15T06:45:26;7.40;99.90
31661;DHT22;18267;52.234;7.444;2023-04-15T06:47:51;7.50;99.90
31661;DHT22;18267;52.234;7.444;2023-04-15T06:50:17;7.60;99.90
31661;DHT22;18267;52.234;7.444;2023-04-15T06:52:46;7.60;99.90
31661;DHT22;18267;52.234;7.444;2023-04-15T06:55:12;7.60;99.90
31661;DHT22;18267;52.234;7.444;2023-04-15T06:57:39;7.40;99.90
31661;DHT22;18267;52.234;7.444;2023-04-15T07:00:06;7.50;99.90
31661;DHT22;18267;52.234;7.444;2023-04-15T07:02:32;7.60;99.90
31661;DHT22;18267;52.234;7.444;2023-04-15T07:04:57;7.70;99.90
31661;DHT22;18267;52.234;7.444;2023-04-15T07:07:23;7.70;99.90
31661;DHT22;18267;52.234;7.444;2023-04-15T07:09:49;7.70;99.90
31661;DHT22;18267;52.234;7.444;2023-04-15T07:12:15;7.70;99.90
31661;DHT22;18267;52.234;7.444;2023-04-15T07:14:41;7.80;99.90
31661;DHT22;18267;52.234;7.444;2023-04-15T07:17:08;7.70;99.90
31661;DHT22;18267;52.234;7.444;2023-04-15T07:19:33;7.70;99.90
31661;DHT22;18267;52.234;7.444;2023-04-15T07:21:59;7.70;99.90
31661;DHT22;18267;52.234;7.444;2023-04-15T07:24:25;7.70;99.90
31661;DHT22;18267;52.234;7.444;2023-04-15T07:26:52;7.80;99.90
31661;DHT22;18267;52.234;7.444;2023-04-15T07:29:18;7.80;99.90
31661;DHT22;18267;52.234;7.444;2023-04-15T07:31:43;8.00;99.90
31661;DHT22;18267;52.234;7.444;2023-04-15T07:34:09;8.00;99.90
31661;DHT22;18267;52.234;7.444;2023-04-15T07:36:35;8.10;99.90
31661;DHT22;18267;52.234;7.444;2023-04-15T07:39:01;8.00;99.90
31661;DHT22;18267;52.234;7.444;2023-04-15T07:41:28;8.00;99.90
31661;DHT22;18267;52.234;7.444;2023-04-15T07:43:54;8.20;99.90
31661;DHT22;18267;52.234;7.444;2023-04-15T07:46:19;8.40;99.90
31661;DHT22;18267;52.234;7.444;2023-04-15T07:48:45;8.40;99.90
31661;DHT22;18267;52.234;7.444;2023-04-15T07:51:11;8.40;99.90
31661;DHT22;18267;52.234;7.444;2023-04-15T07:53:37;8.30;99.90
31661;DHT22;18267;52.234;7.444;2023-04-15T07:56:03;8.20;99.90
31661;DHT22;18267;52.234;7.444;2023-04-15T07:58:28;8.10;99.90
31661;DHT22;18267;52.234;7.444;2023-04-15T08:00:54;8.10;99.90
31661;DHT22;18267;52.234;7.444;2023-04-15T08:03:21;8.10;99.90
31661;DHT22;18267;52.234;7.444;2023-04-15T08:05:47;8.20;99.90
31661;DHT22;18267;52.234;7.444;2023-04-15T08:08:12;8.20;99.90
31661;DHT22;18267;52.234;7.444;2023-04-15T08:10:38;8.20;99.90
31661;DHT22;18267;52.234;7.444;2023-04-15T08:13:03;8.10;99.90
31661;DHT22;18267;52.234;7.444;2023-04-15T08:15:29;8.20;99.90
31661;DHT22;18267;52.234;7.444;2023-04-15T08:17:57;8.20;99.90
31661;DHT22;18267;52.234;7.444;2023-04-15T08:20:25;8.20;99.90
31661;DHT22;18267;52.234;7.444;2023-04-15T08:22:50;8.30;99.90
31661;DHT22;18267;52.234;7.444;2023-04-15T08:25:17;8.30;99.90
31661;DHT22;18267;52.234;7.444;2023-04-15T08:27:44;8.30;99.90
31661;DHT22;18267;52.234;7.444;2023-04-15T08:30:10;8.30;99.90
31661;DHT22;18267;52.234;7.444;2023-04-15T08:32:36;8.30;99.90
31661;DHT22;18267;52.234;7.444;2023-04-15T08:35:02;8.40;99.90
31661;DHT22;18267;52.234;7.444;2023-04-15T08:37:28;8.40;99.90
31661;DHT22;18267;52.234;7.444;2023-04-15T08:39:53;8.50;99.90
31661;DHT22;18267;52.234;7.444;2023-04-15T08:42:23;8.50;99.90
31661;DHT22;18267;52.234;7.444;2023-04-15T08:44:52;8.70;99.90
31661;DHT22;18267;52.234;7.444;2023-04-15T08:47:20;8.80;99.90
31661;DHT22;18267;52.234;7.444;2023-04-15T08:49:50;8.80;99.90
31661;DHT22;18267;52.234;7.444;2023-04-15T08:52:18;8.80;99.90
31661;DHT22;18267;52.234;7.444;2023-04-15T08:54:44;8.70;99.90
31661;DHT22;18267;52.234;7.444;2023-04-15T08:57:11;8.60;99.90
31661;DHT22;18267;52.234;7.444;2023-04-15T08:59:37;8.70;99.90
31661;DHT22;18267;52.234;7.444;2023-04-15T09:02:03;8.80;99.90
31661;DHT22;18267;52.234;7.444;2023-04-15T09:04:28;8.90;99.90
31661;DHT22;18267;52.234;7.444;2023-04-15T09:06:54;8.80;99.90
31661;DHT22;18267;52.234;7.444;2023-04-15T09:09:21;9.00;99.90
31661;DHT22;18267;52.234;7.444;2023-04-15T09:11:47;9.00;99.90
31661;DHT22;18267;52.234;7.444;2023-04-15T09:14:14;9.00;99.90
31661;DHT22;18267;52.234;7.444;2023-04-15T09:16:59;9.00;99.90
31661;DHT22;18267;52.234;7.444;2023-04-15T09:19:25;8.90;99.90
31661;DHT22;18267;52.234;7.444;2023-04-15T09:21:56;9.00;99.90
31661;DHT22;18267;52.234;7.444;2023-04-15T09:24:22;9.00;99.90
31661;DHT22;18267;52.234;7.444;2023-04-15T09:26:51;9.00;99.90
31661;DHT22;18267;52.234;7.444;2023-04-15T09:29:17;9.00;99.90
31661;DHT22;18267;52.234;7.444;2023-04-15T09:31:43;9.10;99.90
31661;DHT22;18267;52.234;7.444;2023-04-15T09:34:09;9.10;99.90
31661;DHT22;18267;52.234;7.444;2023-04-15T09:39:13;9.10;99.90
31661;DHT22;18267;52.234;7.444;2023-04-15T09:41:39;9.10;99.90
31661;DHT22;18267;52.234;7.444;2023-04-15T09:44:05;9.20;99.90
31661;DHT22;18267;52.234;7.444;2023-04-15T09:46:44;9.20;99.90
31661;DHT22;18267;52.234;7.444;2023-04-15T09:49:11;9.20;99.90
31661;DHT22;18267;52.234;7.444;2023-04-15T09:51:37;9.10;99.90
31661;DHT22;18267;52.234;7.444;2023-04-15T09:54:04;9.20;99.90
31661;DHT22;18267;52.234;7.444;2023-04-15T09:56:36;9.20;99.90
31661;DHT22;18267;52.234;7.444;2023-04-15T09:59:07;9.30;99.90
31661;DHT22;18267;52.234;7.444;2023-04-15T10:01:33;9.30;99.90
31661;DHT22;18267;52.234;7.444;2023-04-15T10:04:02;9.30;99.90
31661;DHT22;18267;52.234;7.444;2023-04-15T10:06:28;9.40;99.90
31661;DHT22;18267;52.234;7.444;2023-04-15T10:08:55;9.50;99.90
31661;DHT22;18267;52.234;7.444;2023-04-15T10:11:21;9.50;99.90
31661;DHT22;18267;52.234;7.444;2023-04-15T10:13:48;9.50;99.90
31661;DHT22;18267;52.234;7.444;2023-04-15T10:16:16;9.60;99.90
31661;DHT22;18267;52.234;7.444;2023-04-15T10:18:45;9.60;99.90
31661;DHT22;18267;52.234;7.444;2023-04-15T10:21:12;9.60;99.90
31661;DHT22;18267;52.234;7.444;2023-04-15T10:23:45;9.70;99.90
31661;DHT22;18267;52.234;7.444;2023-04-15T10:26:11;9.70;99.90
31661;DHT22;18267;52.234;7.444;2023-04-15T10:28:39;9.90;99.90
31661;DHT22;18267;52.234;7.444;2023-04-15T10:31:05;9.90;99.90
31661;DHT22;18267;52.234;7.444;2023-04-15T10:33:32;9.90;99.90
31661;DHT22;18267;52.234;7.444;2023-04-15T10:35:59;9.90;99.90
31661;DHT22;18267;52.234;7.444;2023-04-15T10:41:22;9.70;99.90
31661;DHT22;18267;52.234;7.444;2023-04-15T10:43:59;9.80;99.90
31661;DHT22;18267;52.234;7.444;2023-04-15T10:46:42;9.80;99.90
31661;DHT22;18267;52.234;7.444;2023-04-15T10:49:11;9.80;99.90
31661;DHT22;18267;52.234;7.444;2023-04-15T10:51:44;9.90;99.90
31661;DHT22;18267;52.234;7.444;2023-04-15T10:54:14;9.90;99.90
31661;DHT22;18267;52.234;7.444;2023-04-15T10:56:41;10.00;99.90
31661;DHT22;18267;52.234;7.444;2023-04-15T10:59:08;10.00;99.90
31661;DHT22;18267;52.234;7.444;2023-04-15T11:01:49;10.10;99.90
31661;DHT22;18267;52.234;7.444;2023-04-15T11:04:51;10.10;99.90
31661;DHT22;18267;52.234;7.444;2023-04-15T11:12:38;10.00;99.90
31661;DHT22;18267;52.234;7.444;2023-04-15T11:17:55;9.90;99.90
31661;DHT22;18267;52.234;7.444;2023-04-15T11:20:22;10.00;99.90
31661;DHT22;18267;52.234;7.444;2023-04-15T11:22:51;10.00;99.90
31661;DHT22;18267;52.234;7.444;2023-04-15T11:25:24;10.00;99.90
31661;DHT22;18267;52.234;7.444;2023-04-15T11:27:52;10.00;99.90
31661;DHT22;18267;52.234;7.444;2023-04-15T11:30:20;10.00;99.90
31661;DHT22;18267;52.234;7.444;2023-04-15T11:32:47;10.00;99.90
31661;DHT22;18267;52.234;7.444;2023-04-15T11:35:13;9.90;99.90
31661;DHT22;18267;52.234;7.444;2023-04-15T11:37:38;9.90;99.90
31661;DHT22;18267;52.234;7.444;2023-04-15T11:40:05;9.90;99.90
31661;DHT22;18267;52.234;7.444;2023-04-15T11:42:31;9.80;99.90
31661;DHT22;18267;52.234;7.444;2023-04-15T11:45:11;9.90;99.90
31661;DHT22;18267;52.234;7.444;2023-04-15T11:47:38;9.90;99.90
31661;DHT22;18267;52.234;7.444;2023-04-15T11:50:33;9.90;99.90
31661;DHT22;18267;52.234;7.444;2023-04-15T11:53:01;10.00;99.90
31661;DHT22;18267;52.234;7.444;2023-04-15T11:55:29;10.00;99.90
31661;DHT22;18267;52.234;7.444;2023-04-15T11:58:12;10.00;99.90
31661;DHT22;18267;52.234;7.444;2023-04-15T12:00:39;10.00;99.90
31661;DHT22;18267;52.234;7.444;2023-04-15T12:03:24;10.10;99.90
31661;DHT22;18267;52.234;7.444;2023-04-15T12:14:14;10.10;99.90
31661;DHT22;18267;52.234;7.444;2023-04-15T12:16:42;10.00;99.90
31661;DHT22;18267;52.234;7.444;2023-04-15T12:19:13;10.00;99.90
31661;DHT22;18267;52.234;7.444;2023-04-15T12:21:41;10.00;99.90
31661;DHT22;18267;52.234;7.444;2023-04-15T12:24:10;10.00;99.90
31661;DHT22;18267;52.234;7.444;2023-04-15T12:29:10;10.10;99.90
31661;DHT22;18267;52.234;7.444;2023-04-15T12:31:36;10.20;99.90
31661;DHT22;18267;52.234;7.444;2023-04-15T12:34:03;10.10;99.90
31661;DHT22;18267;52.234;7.444;2023-04-15T12:36:31;10.10;99.90
31661;DHT22;18267;52.234;7.444;2023-04-15T12:39:02;10.00;99.90
31661;DHT22;18267;52.234;7.444;2023-04-15T12:41:28;10.00;99.90
31661;DHT22;18267;52.234;7.444;2023-04-15T12:43:53;10.10;99.90
31661;DHT22;18267;52.234;7.444;2023-04-15T12:46:19;10.10;99.90
31661;DHT22;18267;52.234;7.444;2023-04-15T12:48:44;10.10;99.90
31661;DHT22;18267;52.234;7.444;2023-04-15T12:51:10;10.10;99.90
31661;DHT22;18267;52.234;7.444;2023-04-15T12:53:36;10.10;99.90
31661;DHT22;18267;52.234;7.444;2023-04-15T12:56:01;10.10;99.90
31661;DHT22;18267;52.234;7.444;2023-04-15T12:58:27;10.00;99.90
31661;DHT22;18267;52.234;7.444;2023-04-15T13:00:52;9.90;99.90
31661;DHT22;18267;52.234;7.444;2023-04-15T13:03:18;9.90;99.90
31661;DHT22;18267;52.234;7.444;2023-04-15T13:05:43;9.90;99.90
31661;DHT22;18267;52.234;7.444;2023-04-15T13:08:09;9.90;99.90
31661;DHT22;18267;52.234;7.444;2023-04-15T13:10:35;9.90;99.90
31661;DHT22;18267;52.234;7.444;2023-04-15T13:13:01;9.80;99.90
31661;DHT22;18267;52.234;7.444;2023-04-15T13:15:28;9.90;99.90
31661;DHT22;18267;52.234;7.444;2023-04-15T13:17:54;9.80;99.90
31661;DHT22;18267;52.234;7.444;2023-04-15T13:20:19;9.90;99.90
31661;DHT22;18267;52.234;7.444;2023-04-15T13:22:45;9.80;99.90
31661;DHT22;18267;52.234;7.444;2023-04-15T13:25:11;9.70;99.90
31661;DHT22;18267;52.234;7.444;2023-04-15T13:27:36;9.60;99.90
31661;DHT22;18267;52.234;7.444;2023-04-15T13:30:03;9.60;99.90
31661;DHT22;18267;52.234;7.444;2023-04-15T13:32:29;9.70;99.90
31661;DHT22;18267;52.234;7.444;2023-04-15T13:34:55;9.70;99.90
31661;DHT22;18267;52.234;7.444;2023-04-15T13:37:28;9.70;99.90
31661;DHT22;18267;52.234;7.444;2023-04-15T13:39:54;9.60;99.90
31661;DHT22;18267;52.234;7.444;2023-04-15T13:42:21;9.70;99.90
31661;DHT22;18267;52.234;7.444;2023-04-15T13:44:46;9.70;99.90
31661;DHT22;18267;52.234;7.444;2023-04-15T13:47:12;9.60;99.90
31661;DHT22;18267;52.234;7.444;2023-04-15T13:49:39;9.60;99.90
31661;DHT22;18267;52.234;7.444;2023-04-15T13:52:05;9.70;99.90
31661;DHT22;18267;52.234;7.444;2023-04-15T13:54:31;9.70;99.90
31661;DHT22;18267;52.234;7.444;2023-04-15T13:56:56;9.70;99.90
31661;DHT22;18267;52.234;7.444;2023-04-15T13:59:22;9.70;99.90
31661;DHT22;18267;52.234;7.444;2023-04-15T14:01:48;9.60;99.90
31661;DHT22;18267;52.234;7.444;2023-04-15T14:04:14;9.60;99.90
31661;DHT22;18267;52.234;7.444;2023-04-15T14:06:40;9.60;99.90
31661;DHT22;18267;52.234;7.444;2023-04-15T14:09:06;9.60;99.90
31661;DHT22;18267;52.234;7.444;2023-04-15T14:11:32;9.60;99.90
31661;DHT22;18267;52.234;7.444;2023-04-15T14:13:59;9.60;99.90
31661;DHT22;18267;52.234;7.444;2023-04-15T14:16:25;9.50;99.90
31661;DHT22;18267;52.234;7.444;2023-04-15T14:18:51;9.50;99.90
31661;DHT22;18267;52.234;7.444;2023-04-15T14:21:16;9.50;99.90
31661;DHT22;18267;52.234;7.444;2023-04-15T14:27:06;9.40;99.90
31661;DHT22;18267;52.234;7.444;2023-04-15T14:29:33;9.30;99.90
31661;DHT22;18267;52.234;7.444;2023-04-15T14:31:59;9.30;99.90
31661;DHT22;18267;52.234;7.444;2023-04-15T14:34:25;9.30;99.90
31661;DHT22;18267;52.234;7.444;2023-04-15T14:36:51;9.30;99.90
31661;DHT22;18267;52.234;7.444;2023-04-15T14:39:19;9.30;99.90
31661;DHT22;18267;52.234;7.444;2023-04-15T14:41:45;9.20;99.90
31661;DHT22;18267;52.234;7.444;2023-04-15T14:44:11;9.20;99.90
31661;DHT22;18267;52.234;7.444;2023-04-15T14:46:37;9.20;99.90
31661;DHT22;18267;52.234;7.444;2023-04-15T14:49:03;9.20;99.90
31661;DHT22;18267;52.234;7.444;2023-04-15T14:51:29;9.00;99.90
31661;DHT22;18267;52.234;7.444;2023-04-15T14:53:56;9.10;99.90
31661;DHT22;18267;52.234;7.444;2023-04-15T14:56:21;9.10;99.90
31661;DHT22;18267;52.234;7.444;2023-04-15T14:58:47;9.00;99.90
31661;DHT22;18267;52.234;7.444;2023-04-15T15:01:13;9.00;99.90
31661;DHT22;18267;52.234;7.444;2023-04-15T15:03:39;8.90;99.90
31661;DHT22;18267;52.234;7.444;2023-04-15T15:06:04;8.90;99.90
31661;DHT22;18267;52.234;7.444;2023-04-15T15:08:30;8.90;99.90
31661;DHT22;18267;52.234;7.444;2023-04-15T15:10:56;8.90;99.90
31661;DHT22;18267;52.234;7.444;2023-04-15T15:13:21;8.90;99.90
31661;DHT22;18267;52.234;7.444;2023-04-15T15:15:47;8.90;99.90
31661;DHT22;18267;52.234;7.444;2023-04-15T15:18:14;8.90;99.90
31661;DHT22;18267;52.234;7.444;2023-04-15T15:20:41;8.90;99.90
31661;DHT22;18267;52.234;7.444;2023-04-15T15:23:06;8.90;99.90
31661;DHT22;18267;52.234;7.444;2023-04-15T15:25:32;8.80;99.90
31661;DHT22;18267;52.234;7.444;2023-04-15T15:27:58;8.90;99.90
31661;DHT22;18267;52.234;7.444;2023-04-15T15:30:23;8.80;99.90
31661;DHT22;18267;52.234;7.444;2023-04-15T15:32:49;8.80;99.90
31661;DHT22;18267;52.234;7.444;2023-04-15T15:35:14;8.80;99.90
31661;DHT22;18267;52.234;7.444;2023-04-15T15:37:41;8.90;99.90
31661;DHT22;18267;52.234;7.444;2023-04-15T15:40:07;8.80;99.90
31661;DHT22;18267;52.234;7.444;2023-04-15T15:42:33;8.80;99.90
31661;DHT22;18267;52.234;7.444;2023-04-15T15:44:59;8.80;99.90
31661;DHT22;18267;52.234;7.444;2023-04-15T15:47:25;8.80;99.90
31661;DHT22;18267;52.234;7.444;2023-04-15T15:49:52;8.80;99.90
31661;DHT22;18267;52.234;7.444;2023-04-15T15:52:18;8.80;99.90
31661;DHT22;18267;52.234;7.444;2023-04-15T15:54:46;8.80;99.90
31661;DHT22;18267;52.234;7.444;2023-04-15T15:57:12;8.80;99.90
31661;DHT22;18267;52.234;7.444;2023-04-15T15:59:37;8.80;99.90
31661;DHT22;18267;52.234;7.444;2023-04-15T16:02:09;8.80;99.90
31661;DHT22;18267;52.234;7.444;2023-04-15T16:04:39;8.90;99.90
31661;DHT22;18267;52.234;7.444;2023-04-15T16:07:05;8.90;99.90
31661;DHT22;18267;52.234;7.444;2023-04-15T16:09:34;8.90;99.90
31661;DHT22;18267;52.234;7.444;2023-04-15T16:12:01;9.00;99.90
31661;DHT22;18267;52.234;7.444;2023-04-15T16:14:28;9.00;99.90
31661;DHT22;18267;52.234;7.444;2023-04-15T16:16:54;9.00;99.90
31661;DHT22;18267;52.234;7.444;2023-04-15T16:19:20;9.00;99.90